Terminal Aerodrome Forecast
Issued by NWS

Home | Current Version | Previous Version | Text Only | Print | Product List | Glossary On
Versions: 1 2 3 4 5 6 7 8 9 10 11 12 13 14 15 16 17 18 19 20 21 22 23 24 25 26 27 28 29 30 31 32 33 34 35
000
FTUS45 KBOU 191732
TAFBJC
TAF
KBJC 191732Z 1918/2018 03014KT P6SM FEW090 SCT140
     FM192100 09011KT P6SM SCT090 BKN140
     FM200200 34010KT P6SM SCT090 BKN120
     FM200400 28008KT P6SM FEW090 BKN140
     FM201400 35010KT P6SM SCT080 BKN120=

USA.gov is the U.S. government's official web portal to all federal, state and local government web resources and services.